Time;durP1;ratioP1;P1;durP2;ratioP2;P2;SDS_P1;SDS_P2;PMS_P1;PMS_P2;Temp;Humidity;BMP_temperature;BMP_pressure;BME280_temperature;BME280_humidity;BME280_pressure;Samples;Min_cycle;Max_cycle;Signal;HPM_P1;HPM_P2
2022/04/28 00:00:00;;;;;;;9.25;7.25;;;7.00;28.10;;;;;;4984571;28;34044;-75
2022/04/28 00:02:28;;;;;;;10.30;6.82;;;6.90;27.10;;;;;;4984453;28;34083;-75
2022/04/28 00:04:55;;;;;;;9.50;7.65;;;6.90;27.20;;;;;;4984689;28;34038;-76
2022/04/28 00:07:22;;;;;;;9.15;7.43;;;6.80;27.30;;;;;;4983859;28;35901;-75
2022/04/28 00:09:48;;;;;;;10.30;7.80;;;6.80;27.60;;;;;;4985553;28;34104;-75
2022/04/28 00:12:14;;;;;;;8.43;7.35;;;6.80;27.60;;;;;;4967971;28;34063;-75
2022/04/28 00:14:42;;;;;;;10.18;7.72;;;6.70;27.60;;;;;;4951828;28;34082;-77
2022/04/28 00:17:09;;;;;;;9.82;7.75;;;6.70;27.80;;;;;;4984140;28;36749;-75
2022/04/28 00:19:35;;;;;;;12.73;8.20;;;6.60;27.90;;;;;;4984196;28;34359;-75
2022/04/28 00:22:01;;;;;;;11.77;8.30;;;6.60;27.90;;;;;;4984247;28;34211;-76
2022/04/28 00:24:27;;;;;;;11.25;8.95;;;6.60;27.90;;;;;;4984145;28;34630;-76
2022/04/28 00:26:53;;;;;;;11.15;8.55;;;6.60;28.00;;;;;;4968263;28;34668;-75
2022/04/28 00:29:19;;;;;;;11.82;8.57;;;6.60;27.90;;;;;;4984076;28;34084;-75
2022/04/28 00:31:45;;;;;;;11.65;8.70;;;6.60;27.90;;;;;;4985389;28;34047;-75
2022/04/28 00:34:11;;;;;;;10.30;7.95;;;6.50;28.40;;;;;;4967673;28;34327;-75
2022/04/28 00:36:37;;;;;;;11.02;8.77;;;6.50;28.20;;;;;;4963926;28;36315;-75
2022/04/28 00:39:03;;;;;;;10.65;8.05;;;6.40;28.30;;;;;;4948561;28;34091;-76
2022/04/28 00:41:29;;;;;;;11.50;9.07;;;6.40;28.50;;;;;;4948667;28;34208;-76
2022/04/28 00:43:55;;;;;;;12.15;8.82;;;6.40;28.50;;;;;;4948499;28;34331;-75
2022/04/28 00:46:22;;;;;;;12.70;9.75;;;6.40;28.20;;;;;;4962705;28;36279;-75
2022/04/28 00:51:32;;;;;;;10.27;8.27;;;6.30;28.40;;;;;;4964542;28;34050;-76
2022/04/28 00:54:00;;;;;;;12.98;9.48;;;6.30;28.60;;;;;;4948640;28;34415;-76
2022/04/28 00:56:27;;;;;;;12.90;8.98;;;6.30;28.60;;;;;;4948095;28;35538;-76
2022/04/28 00:58:55;;;;;;;13.93;9.05;;;6.20;28.90;;;;;;4965996;28;34281;-76
2022/04/28 01:01:22;;;;;;;12.85;9.38;;;6.20;29.10;;;;;;4966944;28;34256;-76
2022/04/28 01:03:48;;;;;;;11.93;9.07;;;6.20;29.10;;;;;;4983928;28;34391;-76
2022/04/28 01:06:15;;;;;;;12.20;8.50;;;6.10;29.10;;;;;;4966876;28;36308;-76
2022/04/28 01:08:41;;;;;;;14.65;9.63;;;6.10;29.30;;;;;;4966357;28;34086;-76
2022/04/28 01:11:08;;;;;;;12.60;9.00;;;6.00;29.40;;;;;;4966664;28;34209;-76
2022/04/28 01:13:34;;;;;;;11.75;9.00;;;6.00;29.20;;;;;;4967788;28;34380;-76
2022/04/28 01:16:37;;;;;;;11.70;8.63;;;6.00;29.10;;;;;;4966899;28;36282;-76
2022/04/28 01:19:03;;;;;;;13.02;8.70;;;6.00;32.10;;;;;;4982515;28;33977;-76
2022/04/28 01:21:48;;;;;;;12.15;9.05;;;6.00;29.50;;;;;;4967179;28;34235;-76
2022/04/28 01:24:14;;;;;;;11.65;8.90;;;5.90;32.60;;;;;;4947841;28;34431;-76
2022/04/28 01:27:18;;;;;;;12.90;9.15;;;5.90;29.50;;;;;;4963569;28;35917;-76
2022/04/28 01:29:44;;;;;;;11.70;9.02;;;5.80;32.00;;;;;;4971695;28;35762;-76
2022/04/28 01:32:10;;;;;;;14.75;9.77;;;5.80;29.50;;;;;;5004096;28;34134;-76
2022/04/28 01:34:35;;;;;;;15.50;8.95;;;5.80;29.50;;;;;;4967094;28;34491;-76
2022/04/28 01:37:01;;;;;;;13.25;9.07;;;5.80;29.50;;;;;;4967008;28;34264;-76
2022/04/28 01:39:27;;;;;;;12.98;8.93;;;5.70;29.80;;;;;;4963907;28;34142;-76
2022/04/28 01:41:53;;;;;;;13.43;10.23;;;5.70;29.90;;;;;;4962360;28;34119;-75
2022/04/28 01:44:19;;;;;;;12.60;9.02;;;5.60;30.10;;;;;;4966932;28;34227;-76
2022/04/28 01:46:45;;;;;;;11.55;9.32;;;5.60;30.30;;;;;;4966780;28;34997;-76
2022/04/28 01:49:12;;;;;;;12.27;9.30;;;5.50;30.30;;;;;;4983969;28;34102;-76
2022/04/28 01:57:05;;;;;;;15.52;8.60;;;5.50;30.40;;;;;;4982442;28;34707;-76
2022/04/28 01:59:31;;;;;;;12.43;8.98;;;5.50;30.30;;;;;;4963253;28;34010;-76
2022/04/28 02:01:57;;;;;;;15.35;9.85;;;5.40;30.30;;;;;;4979076;28;34131;-75
2022/04/28 02:04:23;;;;;;;15.50;9.60;;;5.40;30.50;;;;;;4983028;28;34678;-76
2022/04/28 02:06:49;;;;;;;16.48;9.57;;;5.40;30.50;;;;;;4966578;28;35834;-75
2022/04/28 02:09:15;;;;;;;12.52;8.98;;;5.40;30.70;;;;;;4966449;28;34252;-76
2022/04/28 02:11:41;;;;;;;14.48;9.88;;;5.40;30.40;;;;;;4950474;28;34131;-76
2022/04/28 02:14:07;;;;;;;14.20;9.80;;;5.30;30.50;;;;;;4953247;28;34334;-76
2022/04/28 02:16:32;;;;;;;11.98;8.38;;;5.30;30.40;;;;;;4985738;28;36533;-76
2022/04/28 02:18:58;;;;;;;13.07;9.52;;;5.30;30.50;;;;;;5003671;28;34141;-76
2022/04/28 02:21:24;;;;;;;11.90;8.80;;;5.30;30.50;;;;;;4985869;28;33967;-76
2022/04/28 02:23:50;;;;;;;14.27;9.98;;;5.30;30.70;;;;;;4970402;28;34265;-75
2022/04/28 02:26:16;;;;;;;12.55;8.68;;;5.30;30.90;;;;;;4968923;28;35880;-76
2022/04/28 02:28:42;;;;;;;13.88;8.98;;;5.20;30.80;;;;;;4973608;28;34281;-76
2022/04/28 02:31:08;;;;;;;11.70;8.63;;;5.20;31.00;;;;;;4953421;28;34171;-76
2022/04/28 02:33:34;;;;;;;13.95;9.43;;;5.20;31.00;;;;;;4970258;28;34343;-76
2022/04/28 02:36:00;;;;;;;12.98;9.95;;;5.10;31.00;;;;;;4969324;28;35864;-76
2022/04/28 02:38:25;;;;;;;16.50;10.15;;;5.10;31.10;;;;;;4953581;28;34122;-76
2022/04/28 02:40:51;;;;;;;11.70;8.90;;;5.10;31.10;;;;;;4982541;28;34188;-76
2022/04/28 02:43:18;;;;;;;15.15;10.02;;;5.10;31.10;;;;;;4987334;28;34618;-76
2022/04/28 02:45:44;;;;;;;12.00;9.05;;;5.00;31.10;;;;;;4972806;28;36114;-76
2022/04/28 02:48:10;;;;;;;13.48;8.77;;;5.10;31.30;;;;;;4972880;28;34196;-75
2022/04/28 02:50:36;;;;;;;11.68;8.05;;;5.00;31.30;;;;;;5006371;28;33991;-76
2022/04/28 02:53:02;;;;;;;11.75;8.98;;;4.90;31.10;;;;;;4988897;28;34385;-76
2022/04/28 02:55:28;;;;;;;14.93;9.25;;;4.90;31.20;;;;;;4957904;28;35961;-76
2022/04/28 02:57:54;;;;;;;13.63;9.73;;;4.90;31.40;;;;;;4965082;28;34329;-76
2022/04/28 03:00:20;;;;;;;14.25;9.93;;;4.90;32.20;;;;;;4969659;28;34503;-76
2022/04/28 03:02:46;;;;;;;14.80;9.85;;;4.80;32.50;;;;;;4990128;28;35800;-76
2022/04/28 03:05:12;;;;;;;14.60;9.23;;;4.80;32.70;;;;;;4985450;28;35809;-76
2022/04/28 03:10:46;;;;;;;17.55;9.43;;;4.80;34.80;;;;;;5002621;28;34232;-75
2022/04/28 03:13:13;;;;;;;13.30;9.52;;;4.80;33.30;;;;;;4971600;28;34011;-75
2022/04/28 03:15:39;;;;;;;17.95;9.85;;;4.80;33.20;;;;;;4968812;28;36491;-76
2022/04/28 03:18:05;;;;;;;16.00;10.05;;;4.80;33.40;;;;;;4986446;28;34351;-75
2022/04/28 03:20:31;;;;;;;14.50;10.27;;;4.80;33.00;;;;;;4986310;28;34129;-75
2022/04/28 03:22:57;;;;;;;14.38;9.57;;;4.80;32.90;;;;;;5003066;28;34276;-75
2022/04/28 03:25:23;;;;;;;18.20;10.32;;;4.80;32.90;;;;;;5004906;28;36065;-75
2022/04/28 03:27:49;;;;;;;14.52;8.90;;;4.80;32.90;;;;;;5004922;28;34177;-75
2022/04/28 03:30:14;;;;;;;13.32;9.02;;;4.70;33.00;;;;;;5005320;28;34143;-76
2022/04/28 03:32:42;;;;;;;14.65;9.45;;;4.70;32.80;;;;;;4987061;28;34068;-75
2022/04/28 03:35:10;;;;;;;17.02;9.90;;;4.70;32.70;;;;;;4972170;28;36262;-75
2022/04/28 03:37:36;;;;;;;13.48;9.55;;;4.70;32.70;;;;;;4988377;28;34178;-75
2022/04/28 03:40:03;;;;;;;13.32;9.30;;;4.70;32.70;;;;;;4988073;28;34400;-75
2022/04/28 03:42:29;;;;;;;13.93;8.95;;;4.60;32.90;;;;;;4972050;28;34237;-76
2022/04/28 03:44:54;;;;;;;14.40;9.27;;;4.60;32.90;;;;;;4987514;28;35952;-76
2022/04/28 03:47:21;;;;;;;13.68;9.90;;;4.50;33.00;;;;;;5004636;28;34203;-76
2022/04/28 03:49:47;;;;;;;14.43;9.65;;;4.50;33.10;;;;;;5005470;28;34074;-75
2022/04/28 03:52:13;;;;;;;16.27;10.10;;;4.50;33.20;;;;;;4988244;28;34143;-75
2022/04/28 03:54:39;;;;;;;12.55;8.32;;;4.50;33.20;;;;;;4987568;28;36534;-75
2022/04/28 03:57:06;;;;;;;12.98;9.35;;;4.40;33.10;;;;;;5004313;28;34264;-76
2022/04/28 03:59:32;;;;;;;14.25;9.32;;;4.40;33.20;;;;;;4991044;28;34090;-76
2022/04/28 04:01:58;;;;;;;13.95;9.02;;;4.40;33.30;;;;;;4975056;28;34312;-76
2022/04/28 04:04:24;;;;;;;19.10;8.98;;;4.40;33.50;;;;;;4971195;28;35518;-76
2022/04/28 04:06:50;;;;;;;12.73;9.23;;;4.40;33.20;;;;;;4952346;28;34033;-76
2022/04/28 04:09:16;;;;;;;14.32;8.85;;;4.40;33.30;;;;;;4968406;28;34064;-76
2022/04/28 04:11:42;;;;;;;15.45;9.75;;;4.40;33.50;;;;;;4985692;28;33975;-76
2022/04/28 04:14:08;;;;;;;15.07;9.10;;;4.30;33.20;;;;;;4968160;28;36338;-75
2022/04/28 04:16:34;;;;;;;13.88;8.95;;;4.30;33.20;;;;;;4968727;28;34200;-76
2022/04/28 04:18:59;;;;;;;13.20;9.02;;;4.30;33.00;;;;;;4952104;28;34312;-76
2022/04/28 04:21:25;;;;;;;12.32;8.23;;;4.30;33.10;;;;;;4980845;28;34202;-76
2022/04/28 04:23:51;;;;;;;12.30;8.57;;;4.30;33.00;;;;;;4987594;28;34388;-76
2022/04/28 04:26:17;;;;;;;12.88;8.90;;;4.30;33.20;;;;;;4982992;28;34228;-76
2022/04/28 04:28:43;;;;;;;13.65;9.10;;;4.30;33.30;;;;;;4967878;28;34139;-76
2022/04/28 04:33:50;;;;;;;13.75;9.15;;;4.20;33.40;;;;;;4983666;28;34391;-76
2022/04/28 04:36:16;;;;;;;11.70;8.77;;;4.30;33.50;;;;;;4983628;28;34463;-76
2022/04/28 04:38:42;;;;;;;14.45;9.65;;;4.20;33.30;;;;;;4983992;28;34364;-76
2022/04/28 04:41:11;;;;;;;15.38;8.93;;;4.20;33.20;;;;;;4998004;28;34107;-76
2022/04/28 04:43:38;;;;;;;13.90;9.10;;;4.20;33.20;;;;;;4986500;28;35729;-76
2022/04/28 04:46:04;;;;;;;16.23;8.32;;;4.20;33.30;;;;;;4987038;28;34343;-76
2022/04/28 04:48:31;;;;;;;10.73;8.18;;;4.30;33.20;;;;;;5003328;28;34293;-76
2022/04/28 04:50:57;;;;;;;14.40;9.82;;;4.30;33.10;;;;;;4990375;28;34070;-76
2022/04/28 04:53:23;;;;;;;15.68;10.00;;;4.30;33.20;;;;;;4983784;28;36355;-76
2022/04/28 04:55:49;;;;;;;14.68;9.70;;;4.40;33.30;;;;;;4985057;28;34209;-76
2022/04/28 04:58:15;;;;;;;13.25;9.00;;;4.40;33.30;;;;;;4967354;28;34282;-76
2022/04/28 05:00:41;;;;;;;13.82;8.88;;;4.40;33.40;;;;;;4991817;28;33987;-76
2022/04/28 05:03:07;;;;;;;14.25;9.43;;;4.40;33.50;;;;;;4975368;28;35907;-76
2022/04/28 05:05:33;;;;;;;13.27;10.02;;;4.40;33.50;;;;;;5004860;28;34091;-76
2022/04/28 05:07:59;;;;;;;13.15;9.25;;;4.50;33.20;;;;;;5004469;28;34354;-76
2022/04/28 05:10:25;;;;;;;15.30;9.75;;;4.60;33.30;;;;;;4986789;28;34732;-76
2022/04/28 05:12:51;;;;;;;16.40;10.40;;;4.60;33.40;;;;;;4986571;28;36397;-76
2022/04/28 05:15:17;;;;;;;15.90;9.68;;;4.60;33.40;;;;;;4962038;28;34457;-76
2022/04/28 05:17:43;;;;;;;14.73;9.88;;;4.70;33.60;;;;;;4978153;28;34499;-76
2022/04/28 05:20:09;;;;;;;16.85;10.25;;;4.70;33.80;;;;;;4986796;28;34148;-76
2022/04/28 05:22:35;;;;;;;14.55;9.73;;;4.80;33.80;;;;;;5000380;28;36338;-76
2022/04/28 05:25:01;;;;;;;15.18;10.45;;;4.90;33.80;;;;;;4966691;28;34229;-77
2022/04/28 05:27:27;;;;;;;14.75;9.63;;;5.00;33.80;;;;;;4971398;28;34041;-76
2022/04/28 05:29:53;;;;;;;15.23;9.77;;;5.00;33.80;;;;;;4975275;28;34396;-76
2022/04/28 05:32:19;;;;;;;17.55;10.60;;;5.20;33.80;;;;;;4982488;28;35998;-76
2022/04/28 05:34:45;;;;;;;17.45;11.07;;;5.30;33.60;;;;;;4986782;28;34232;-76
2022/04/28 05:37:12;;;;;;;14.63;10.10;;;5.50;33.50;;;;;;5003697;28;34237;-76
2022/04/28 05:39:40;;;;;;;17.65;11.55;;;5.70;33.30;;;;;;4970862;28;34434;-76
2022/04/28 05:42:07;;;;;;;17.27;11.75;;;5.90;33.30;;;;;;4969041;28;36774;-76
2022/04/28 05:47:17;;;;;;;19.25;13.00;;;6.60;32.40;;;;;;5004138;28;34126;-77
2022/04/28 05:49:43;;;;;;;26.52;13.13;;;7.00;31.50;;;;;;4970359;28;35124;-75
2022/04/28 05:52:09;;;;;;;20.08;13.60;;;7.40;30.90;;;;;;4986094;28;36693;-76
2022/04/28 05:54:36;;;;;;;21.48;13.05;;;7.90;30.30;;;;;;4986367;28;34151;-76
2022/04/28 05:57:03;;;;;;;18.27;12.07;;;8.40;29.40;;;;;;4989456;28;34403;-76
2022/04/28 05:59:29;;;;;;;16.67;12.27;;;9.00;28.60;;;;;;4989435;28;34169;-76
2022/04/28 06:01:54;;;;;;;18.00;12.55;;;9.60;27.60;;;;;;4989577;28;36084;-76
2022/04/28 06:04:20;;;;;;;21.38;11.48;;;10.30;26.50;;;;;;5001833;28;34008;-76
2022/04/28 06:06:46;;;;;;;17.17;11.40;;;11.10;25.40;;;;;;5006994;28;34210;-76
2022/04/28 06:09:12;;;;;;;18.20;11.48;;;11.80;24.10;;;;;;5005611;28;34462;-76
2022/04/28 06:11:38;;;;;;;16.50;11.48;;;12.50;22.90;;;;;;4989186;28;35463;-76
2022/04/28 06:14:04;;;;;;;14.55;10.73;;;13.20;21.60;;;;;;4989511;28;34119;-76
2022/04/28 06:16:30;;;;;;;16.08;11.15;;;13.80;20.60;;;;;;4989576;28;34047;-76
2022/04/28 06:19:01;;;;;;;15.63;10.30;;;14.50;20.00;;;;;;4980256;28;34272;-76
2022/04/28 06:21:26;;;;;;;15.25;11.60;;;15.00;19.40;;;;;;4988960;28;35714;-77
2022/04/28 06:23:52;;;;;;;13.60;10.57;;;15.40;18.80;;;;;;4989165;28;34186;-76
2022/04/28 06:26:18;;;;;;;17.60;11.02;;;15.80;18.40;;;;;;5005914;28;34109;-77
2022/04/28 06:28:44;;;;;;;14.25;10.65;;;16.20;18.10;;;;;;4989525;28;34334;-76
2022/04/28 06:31:10;;;;;;;14.10;10.27;;;16.60;17.70;;;;;;5005236;28;35814;-76
2022/04/28 06:33:40;;;;;;;12.52;9.63;;;16.90;17.50;;;;;;5005562;28;34257;-76
2022/04/28 06:36:06;;;;;;;14.60;10.38;;;17.40;16.70;;;;;;4988703;28;34194;-77
2022/04/28 06:38:32;;;;;;;16.33;9.77;;;17.60;16.70;;;;;;4988930;28;34432;-76
2022/04/28 06:40:58;;;;;;;12.75;9.55;;;18.00;16.40;;;;;;4988751;28;35574;-76
2022/04/28 06:43:23;;;;;;;15.27;10.45;;;18.30;16.10;;;;;;4988988;28;34217;-76
2022/04/28 06:48:31;;;;;;;15.05;9.73;;;18.70;15.40;;;;;;5005440;28;34011;-76
2022/04/28 06:50:57;;;;;;;12.85;9.02;;;19.00;15.20;;;;;;4972452;28;36870;-76
2022/04/28 06:53:23;;;;;;;13.50;9.18;;;19.30;14.90;;;;;;4952338;28;34226;-77
2022/04/28 06:55:49;;;;;;;11.55;9.02;;;19.60;14.80;;;;;;4986993;28;34242;-76
2022/04/28 06:58:15;;;;;;;13.25;9.10;;;19.80;14.60;;;;;;4985462;28;34085;-77
2022/04/28 07:00:41;;;;;;;11.82;9.20;;;20.10;14.40;;;;;;4952723;28;35479;-77
2022/04/28 07:03:06;;;;;;;10.57;9.07;;;20.40;14.00;;;;;;4968999;28;34597;-77
2022/04/28 07:05:34;;;;;;;12.95;8.93;;;20.60;13.70;;;;;;4997129;28;34163;-77
2022/04/28 07:07:59;;;;;;;11.43;8.45;;;20.80;13.40;;;;;;4986406;28;34450;-77
2022/04/28 07:10:25;;;;;;;13.45;8.80;;;21.00;13.40;;;;;;4986158;28;34256;-77
2022/04/28 07:12:51;;;;;;;11.38;8.52;;;21.10;13.10;;;;;;4968737;28;34454;-77
2022/04/28 07:15:17;;;;;;;10.25;8.45;;;21.10;12.90;;;;;;4968417;28;34089;-77
2022/04/28 07:17:43;;;;;;;11.65;8.85;;;21.20;12.90;;;;;;4986316;28;33992;-77
2022/04/28 07:20:09;;;;;;;11.50;9.07;;;21.00;12.70;;;;;;4972034;28;36029;-76
2022/04/28 07:22:35;;;;;;;10.27;8.55;;;21.00;12.90;;;;;;4972211;28;34159;-77
2022/04/28 07:25:02;;;;;;;12.23;8.52;;;21.00;13.20;;;;;;4988636;28;34127;-77
2022/04/28 07:27:28;;;;;;;11.02;8.88;;;21.00;13.30;;;;;;4988238;28;34181;-77
2022/04/28 07:29:53;;;;;;;10.75;8.18;;;20.90;13.50;;;;;;5001944;28;34388;-76
2022/04/28 07:32:20;;;;;;;12.00;8.13;;;20.80;13.50;;;;;;4971439;28;34048;-77
2022/04/28 07:34:45;;;;;;;10.88;8.18;;;20.80;13.60;;;;;;5004331;28;34163;-77
2022/04/28 07:37:11;;;;;;;12.07;8.48;;;20.80;13.80;;;;;;4983027;28;34092;-76
2022/04/28 07:39:37;;;;;;;9.82;8.25;;;20.70;13.90;;;;;;4952462;28;35474;-77
2022/04/28 07:42:03;;;;;;;10.95;8.35;;;20.60;14.00;;;;;;4960305;28;34296;-77
2022/04/28 07:44:29;;;;;;;10.30;7.82;;;20.50;14.20;;;;;;4969044;28;34483;-76
2022/04/28 07:46:56;;;;;;;14.68;9.05;;;20.60;14.10;;;;;;4976540;28;34088;-77
2022/04/28 07:49:22;;;;;;;9.93;8.30;;;20.60;14.00;;;;;;4981178;28;34424;-77
2022/04/28 07:51:48;;;;;;;11.48;8.48;;;20.60;14.00;;;;;;4968562;28;34340;-77
2022/04/28 07:54:17;;;;;;;10.07;8.02;;;20.50;14.10;;;;;;4978613;28;34108;-76
2022/04/28 07:56:44;;;;;;;11.43;8.40;;;20.60;14.00;;;;;;4968351;28;34025;-76
2022/04/28 07:59:11;;;;;;;11.25;7.45;;;20.60;13.90;;;;;;4968058;28;35984;-76
2022/04/28 08:01:38;;;;;;;10.18;8.10;;;20.50;14.00;;;;;;4976074;28;34416;-77
2022/04/28 08:04:04;;;;;;;12.98;8.07;;;20.40;13.90;;;;;;4975236;28;34224;-76
2022/04/28 08:06:30;;;;;;;9.13;7.75;;;20.50;14.10;;;;;;4974390;28;34406;-77
2022/04/28 08:08:56;;;;;;;10.70;8.15;;;20.60;14.00;;;;;;4979648;28;35980;-77
2022/04/28 08:11:21;;;;;;;9.80;8.05;;;20.70;13.90;;;;;;4987921;28;34145;-77
2022/04/28 08:13:49;;;;;;;10.50;7.93;;;20.80;13.70;;;;;;5005121;28;34023;-76
2022/04/28 08:16:15;;;;;;;10.75;7.22;;;20.90;13.50;;;;;;4987677;28;34392;-77
2022/04/28 08:18:41;;;;;;;8.43;6.68;;;21.10;13.60;;;;;;4970532;28;35666;-77
2022/04/28 08:21:08;;;;;;;8.60;7.00;;;21.30;13.30;;;;;;4970922;28;34323;-77
2022/04/28 08:23:36;;;;;;;7.50;6.28;;;21.60;12.80;;;;;;4987671;28;34182;-76
2022/04/28 08:26:03;;;;;;;9.18;7.20;;;21.70;12.30;;;;;;5004930;28;34276;-77
2022/04/28 08:28:29;;;;;;;7.18;5.93;;;21.80;11.90;;;;;;4983385;28;35824;-76
2022/04/28 08:33:39;;;;;;;6.50;5.90;;;22.10;11.50;;;;;;4984819;28;34067;-77
2022/04/28 08:36:06;;;;;;;6.93;5.60;;;22.20;11.50;;;;;;4969245;28;34112;-76
2022/04/28 08:38:32;;;;;;;6.85;5.68;;;22.40;11.40;;;;;;4964110;28;35844;-77
2022/04/28 08:41:01;;;;;;;8.27;6.13;;;22.50;11.10;;;;;;4960814;28;34387;-77
2022/04/28 08:43:30;;;;;;;7.95;5.85;;;22.80;10.60;;;;;;4952107;28;34100;-77
2022/04/28 08:48:48;;;;;;;8.88;5.95;;;23.00;8.40;;;;;;4984898;28;34181;-77
2022/04/28 08:51:14;;;;;;;6.97;4.95;;;23.20;10.20;;;;;;4953700;28;34128;-78
2022/04/28 08:53:41;;;;;;;5.05;3.80;;;23.30;10.00;;;;;;4984748;28;33965;-76
2022/04/28 08:56:07;;;;;;;4.70;3.97;;;23.30;9.60;;;;;;4984074;28;34207;-77
2022/04/28 08:58:33;;;;;;;5.30;4.80;;;23.30;9.10;;;;;;4951495;28;35850;-76
2022/04/28 09:00:59;;;;;;;5.55;4.18;;;23.20;8.70;;;;;;4985220;28;34055;-77
2022/04/28 09:03:25;;;;;;;6.18;4.43;;;23.30;8.80;;;;;;4967957;28;34134;-76
2022/04/28 09:05:51;;;;;;;6.65;4.57;;;23.50;8.80;;;;;;4983629;28;34146;-77
2022/04/28 09:08:18;;;;;;;4.60;4.20;;;23.40;8.30;;;;;;4983400;28;35620;-76
2022/04/28 09:10:45;;;;;;;3.92;3.55;;;23.60;8.20;;;;;;4984870;28;34128;-76
2022/04/28 09:15:54;;;;;;;3.28;2.95;;;23.60;7.50;;;;;;4984202;28;34321;-77
2022/04/28 09:18:21;;;;;;;4.07;3.55;;;23.50;7.20;;;;;;4968702;28;34919;-76
2022/04/28 09:20:48;;;;;;;4.68;3.05;;;23.50;7.20;;;;;;4983546;28;34167;-76
2022/04/28 09:23:16;;;;;;;3.53;3.10;;;23.40;6.80;;;;;;4983714;28;34114;-77
2022/04/28 09:25:43;;;;;;;4.03;2.63;;;23.40;6.50;;;;;;4969332;28;34128;-77
2022/04/28 09:28:10;;;;;;;3.10;2.80;;;23.50;6.40;;;;;;4965446;28;34473;-76
2022/04/28 09:30:52;;;;;;;4.03;3.00;;;23.60;6.30;;;;;;4942748;28;34262;-77
2022/04/28 09:33:20;;;;;;;2.40;2.20;;;23.70;1.80;;;;;;4951531;28;34260;-77
2022/04/28 09:35:48;;;;;;;3.72;2.72;;;23.70;5.90;;;;;;4967518;28;34103;-76
2022/04/28 09:38:14;;;;;;;5.20;2.35;;;23.70;5.30;;;;;;4966602;28;36246;-77
2022/04/28 09:43:25;;;;;;;3.08;2.17;;;23.90;2.70;;;;;;4984808;28;34128;-76
2022/04/28 09:45:52;;;;;;;3.55;2.63;;;24.00;5.30;;;;;;4966886;28;34147;-77
2022/04/28 09:48:19;;;;;;;3.08;2.42;;;24.10;4.90;;;;;;4967108;28;35181;-77
2022/04/28 09:50:45;;;;;;;3.47;2.70;;;24.10;4.30;;;;;;4943497;28;34153;-77
2022/04/28 09:53:11;;;;;;;3.83;2.70;;;24.40;4.70;;;;;;4967080;28;34189;-77
2022/04/28 09:55:39;;;;;;;3.15;2.85;;;24.60;4.60;;;;;;4982945;28;34178;-76
2022/04/28 09:58:08;;;;;;;3.00;2.30;;;24.80;1.00;;;;;;4966762;28;35117;-77
2022/04/28 10:00:35;;;;;;;2.13;1.90;;;24.70;4.00;;;;;;4967017;28;34349;-76
2022/04/28 10:03:21;;;;;;;1.92;1.83;;;24.70;3.70;;;;;;4967017;28;34116;-76
2022/04/28 10:05:48;;;;;;;2.22;2.03;;;24.70;1.00;;;;;;4995117;28;34622;-77
2022/04/28 10:08:14;;;;;;;2.45;1.98;;;24.60;3.10;;;;;;4982651;28;35921;-77
2022/04/28 10:10:41;;;;;;;2.20;2.00;;;24.60;2.70;;;;;;4978465;28;34226;-76
2022/04/28 10:13:09;;;;;;;2.40;1.80;;;24.70;2.40;;;;;;4972941;28;34257;-77
2022/04/28 10:19:21;;;;;;;3.80;1.98;;;24.80;1.00;;;;;;5003059;28;34227;-77
2022/04/28 10:33:43;;;;;;;3.83;1.90;;;25.10;1.00;;;;;;4995952;28;34110;-77
2022/04/28 10:36:16;;;;;;;1.52;1.42;;;25.10;1.00;;;;;;5002818;28;34060;-77
2022/04/28 10:39:05;;;;;;;1.70;1.60;;;25.30;1.00;;;;;;4973715;28;34083;-77
2022/04/28 10:41:31;;;;;;;2.40;1.80;;;25.40;1.00;;;;;;4977215;28;34420;-77
2022/04/28 10:44:00;;;;;;;2.83;1.95;;;25.50;1.10;;;;;;4987270;28;34297;-77
2022/04/28 10:46:30;;;;;;;2.83;1.95;;;25.50;1.00;;;;;;4985859;28;34264;-76
2022/04/28 10:49:03;;;;;;;2.10;1.90;;;25.40;1.00;;;;;;4969637;28;34488;-76
2022/04/28 10:51:31;;;;;;;2.85;2.17;;;25.30;1.00;;;;;;4953466;28;35580;-77
2022/04/28 10:54:19;;;;;;;1.85;1.65;;;25.30;1.00;;;;;;4953802;28;34384;-77
2022/04/28 10:56:56;;;;;;;2.10;1.90;;;25.20;1.00;;;;;;4987486;28;34209;-77
2022/04/28 10:59:32;;;;;;;4.05;2.05;;;25.20;1.00;;;;;;4986036;28;34146;-76
2022/04/28 11:02:36;;;;;;;2.80;1.95;;;25.20;1.00;;;;;;5002276;28;36647;-77
2022/04/28 11:05:23;;;;;;;2.00;1.70;;;25.20;1.00;;;;;;4969885;28;34340;-77
2022/04/28 11:07:48;;;;;;;2.65;1.90;;;25.20;1.00;;;;;;4955928;28;34094;-76
2022/04/28 11:10:14;;;;;;;1.90;1.75;;;25.30;1.00;;;;;;4978015;28;34507;-77
2022/04/28 11:12:42;;;;;;;2.35;1.60;;;25.30;1.00;;;;;;5007358;28;34387;-77
2022/04/28 11:15:14;;;;;;;2.58;1.70;;;25.40;1.00;;;;;;4988366;28;34310;-76
2022/04/28 11:17:44;;;;;;;4.90;1.60;;;25.40;1.00;;;;;;4990244;28;34607;-76
2022/04/28 11:20:13;;;;;;;3.00;1.92;;;25.40;1.00;;;;;;4989914;28;34392;-76
2022/04/28 11:22:43;;;;;;;2.28;1.73;;;25.40;1.00;;;;;;5006727;28;34116;-78
2022/04/28 11:25:11;;;;;;;2.15;1.48;;;25.30;1.00;;;;;;5005362;28;34284;-76
2022/04/28 11:27:38;;;;;;;1.67;1.58;;;25.20;1.00;;;;;;5006101;28;34097;-76
2022/04/28 11:30:05;;;;;;;2.05;1.70;;;25.00;1.00;;;;;;4989229;28;34090;-76
2022/04/28 11:32:31;;;;;;;2.03;1.63;;;25.00;1.00;;;;;;4987891;28;35800;-76
2022/04/28 11:34:57;;;;;;;1.88;1.52;;;25.10;1.00;;;;;;4970517;28;34165;-77
2022/04/28 11:37:26;;;;;;;2.13;1.70;;;25.30;1.00;;;;;;5004801;28;34385;-76
2022/04/28 11:39:54;;;;;;;1.65;1.55;;;25.10;1.00;;;;;;4962596;28;34125;-76
2022/04/28 11:42:21;;;;;;;2.28;1.98;;;25.10;1.00;;;;;;4969155;28;35604;-76
2022/04/28 11:44:52;;;;;;;1.85;1.70;;;25.10;1.00;;;;;;4964482;28;34067;-78
2022/04/28 11:47:21;;;;;;;3.50;1.90;;;25.10;1.00;;;;;;5001333;28;34068;-77
2022/04/28 11:49:50;;;;;;;2.28;1.35;;;24.80;1.00;;;;;;4971071;28;34539;-76
2022/04/28 11:52:27;;;;;;;5.38;1.63;;;24.70;1.00;;;;;;4990583;28;35696;-75
2022/04/28 11:55:03;;;;;;;3.30;1.85;;;24.70;1.00;;;;;;4980776;28;34040;-76
2022/04/28 11:57:29;;;;;;;1.85;1.65;;;24.70;1.00;;;;;;4988069;28;34329;-78
2022/04/28 11:59:56;;;;;;;1.67;1.40;;;24.90;1.00;;;;;;4987058;28;34142;-75
2022/04/28 12:02:29;;;;;;;2.25;1.50;;;25.00;1.00;;;;;;4969361;28;34568;-78
2022/04/28 12:04:57;;;;;;;2.35;1.80;;;25.00;1.00;;;;;;4960112;28;34380;-77
2022/04/28 12:07:27;;;;;;;1.77;1.55;;;25.10;1.00;;;;;;4954981;28;34279;-78
2022/04/28 12:15:17;;;;;;;1.52;1.42;;;25.40;1.00;;;;;;4986442;28;34397;-78
2022/04/28 12:20:53;;;;;;;2.42;1.70;;;25.50;1.00;;;;;;4985451;28;34023;-78
2022/04/28 12:23:30;;;;;;;1.85;1.58;;;25.60;1.00;;;;;;4991910;28;35191;-78
2022/04/28 12:26:00;;;;;;;2.17;1.80;;;25.60;1.00;;;;;;5000871;28;34262;-78
2022/04/28 12:28:43;;;;;;;2.60;1.70;;;25.60;1.00;;;;;;4975085;28;34320;-78
2022/04/28 12:31:12;;;;;;;1.80;1.60;;;25.70;1.00;;;;;;4986533;28;34171;-78
2022/04/28 12:33:39;;;;;;;2.38;1.40;;;25.80;1.00;;;;;;4969029;28;35527;-77
2022/04/28 12:36:13;;;;;;;1.52;1.33;;;25.90;1.00;;;;;;4967919;28;34156;-77
2022/04/28 12:38:49;;;;;;;1.77;1.40;;;25.90;1.00;;;;;;4963349;28;34187;-77
2022/04/28 12:41:19;;;;;;;2.15;1.58;;;25.90;1.00;;;;;;4984720;28;34101;-77
2022/04/28 12:43:49;;;;;;;2.20;1.70;;;25.70;1.00;;;;;;4952897;28;36484;-78
2022/04/28 12:46:22;;;;;;;2.75;1.40;;;25.70;1.00;;;;;;4984205;28;34281;-78
2022/04/28 12:48:55;;;;;;;3.65;1.40;;;25.80;1.00;;;;;;4967792;28;34075;-78
2022/04/28 12:51:23;;;;;;;1.75;1.65;;;25.80;1.00;;;;;;4981587;28;34629;-78
2022/04/28 12:53:52;;;;;;;2.03;1.90;;;25.70;1.00;;;;;;4951855;28;35631;-77
2022/04/28 12:56:30;;;;;;;1.98;1.63;;;25.60;1.00;;;;;;4983795;28;34173;-78
2022/04/28 12:59:04;;;;;;;2.05;1.88;;;25.60;1.00;;;;;;4968458;28;34286;-77
2022/04/28 13:01:30;;;;;;;1.80;1.55;;;25.60;1.00;;;;;;4947484;28;34621;-78
2022/04/28 13:04:02;;;;;;;2.50;1.50;;;25.60;1.00;;;;;;4954532;28;35494;-78
2022/04/28 13:06:30;;;;;;;5.68;1.90;;;25.60;1.00;;;;;;4968429;28;34225;-77
2022/04/28 13:08:57;;;;;;;3.42;1.70;;;25.60;1.00;;;;;;4965183;28;34399;-76
2022/04/28 13:11:27;;;;;;;1.45;1.35;;;25.60;1.00;;;;;;4984717;28;34024;-78
2022/04/28 13:13:54;;;;;;;1.98;1.63;;;25.60;1.00;;;;;;4983765;28;35089;-78
2022/04/28 13:16:20;;;;;;;1.50;1.40;;;25.60;1.00;;;;;;4961606;28;34302;-78
2022/04/28 13:18:47;;;;;;;1.85;1.63;;;25.50;1.00;;;;;;4968542;28;34281;-77
2022/04/28 13:21:13;;;;;;;5.28;2.00;;;25.40;1.00;;;;;;4984870;28;34346;-78
2022/04/28 13:23:40;;;;;;;1.70;1.60;;;25.40;1.00;;;;;;4967192;28;34776;-77
2022/04/28 13:26:08;;;;;;;2.03;1.52;;;25.40;1.00;;;;;;4984429;28;34454;-76
2022/04/28 13:28:34;;;;;;;2.25;1.63;;;25.30;1.00;;;;;;4968466;28;34545;-78
2022/04/28 13:30:59;;;;;;;1.73;1.42;;;25.30;1.00;;;;;;4968124;28;34405;-78
2022/04/28 13:33:26;;;;;;;1.75;1.65;;;25.40;1.00;;;;;;4978074;28;35562;-77
2022/04/28 13:35:52;;;;;;;1.73;1.63;;;25.40;1.00;;;;;;4987652;28;34277;-77
2022/04/28 13:38:18;;;;;;;2.35;1.73;;;25.40;1.00;;;;;;5005065;28;34157;-77
2022/04/28 13:40:44;;;;;;;1.73;1.63;;;25.50;1.00;;;;;;4987633;28;34089;-77
2022/04/28 13:43:10;;;;;;;1.90;1.42;;;25.40;1.00;;;;;;5004498;28;34198;-77